createdAt,value
2022-12-20T00:04:54.883Z,5.88
2022-12-20T00:09:56.633Z,4.72
2022-12-20T00:14:58.252Z,5.05
2022-12-20T00:19:59.950Z,5.32
2022-12-20T00:25:01.616Z,8.02
2022-12-20T00:30:04.024Z,8.93
2022-12-20T00:35:06.147Z,10.18
2022-12-20T00:40:08.569Z,9.90
2022-12-20T00:45:10.701Z,9.15
2022-12-20T00:50:13.610Z,8.52
2022-12-20T00:55:15.589Z,7.20
2022-12-20T01:00:17.656Z,6.07
2022-12-20T01:05:19.870Z,6.38
2022-12-20T01:10:21.564Z,6.88
2022-12-20T01:15:23.354Z,6.75
2022-12-20T01:20:25.006Z,6.03
2022-12-20T01:25:26.674Z,5.10
2022-12-20T01:30:28.310Z,5.85
2022-12-20T01:35:29.980Z,4.82
2022-12-20T01:40:31.702Z,5.22
2022-12-20T01:45:33.370Z,5.38
2022-12-20T01:50:35.416Z,5.57
2022-12-20T01:55:37.521Z,5.22
2022-12-20T02:00:39.552Z,5.60
2022-12-20T02:05:45.757Z,5.05
2022-12-20T02:11:02.541Z,4.88
2022-12-20T02:16:04.956Z,4.75
2022-12-20T02:21:34.147Z,4.65
2022-12-20T02:27:02.128Z,4.93
2022-12-20T02:32:08.585Z,5.60
2022-12-20T02:37:10.892Z,4.90
2022-12-20T02:42:15.227Z,4.97
2022-12-20T02:47:26.388Z,5.13
2022-12-20T02:52:31.033Z,5.25
2022-12-20T02:57:37.563Z,5.65
2022-12-20T03:02:58.770Z,5.60
2022-12-20T03:08:00.592Z,6.10
2022-12-20T03:13:02.379Z,5.78
2022-12-20T03:18:04.715Z,5.30
2022-12-20T03:23:06.515Z,4.88
2022-12-20T03:28:08.280Z,4.85
2022-12-20T03:33:10.088Z,4.07
2022-12-20T03:38:11.700Z,4.43
2022-12-20T03:43:13.488Z,4.28
2022-12-20T03:48:15.514Z,4.13
2022-12-20T03:53:17.170Z,4.50
2022-12-20T03:58:18.823Z,5.32
2022-12-20T04:03:20.576Z,4.32
2022-12-20T04:08:22.303Z,4.97
2022-12-20T04:13:24.018Z,5.45
2022-12-20T04:18:25.735Z,4.85
2022-12-20T04:23:27.509Z,4.88
2022-12-20T04:28:29.674Z,4.22
2022-12-20T04:33:31.676Z,5.13
2022-12-20T04:38:33.907Z,4.85
2022-12-20T04:43:35.588Z,4.90
2022-12-20T04:48:57.041Z,4.82
2022-12-20T04:53:59.339Z,4.50
2022-12-20T04:59:02.507Z,4.10
2022-12-20T05:04:04.402Z,4.63
2022-12-20T05:09:06.120Z,3.85
2022-12-20T05:14:07.785Z,4.30
2022-12-20T05:19:09.411Z,3.95
2022-12-20T05:24:29.734Z,4.13
2022-12-20T05:29:31.408Z,4.18
2022-12-20T05:34:33.081Z,3.30
2022-12-20T05:39:34.709Z,3.60
2022-12-20T05:44:36.865Z,3.33
2022-12-20T05:49:38.580Z,4.25
2022-12-20T05:54:40.243Z,4.22
2022-12-20T05:59:42.051Z,4.72
2022-12-20T06:04:43.657Z,4.40
2022-12-20T06:09:46.356Z,4.05
2022-12-20T06:14:48.016Z,4.03
2022-12-20T06:19:49.659Z,3.85
2022-12-20T06:24:51.315Z,3.58
2022-12-20T06:29:54.426Z,3.58
2022-12-20T06:34:56.320Z,4.10
2022-12-20T06:39:58.531Z,4.35
2022-12-20T06:45:00.198Z,3.83
2022-12-20T06:50:02.085Z,4.10
2022-12-20T06:55:04.187Z,3.72
2022-12-20T07:00:08.340Z,3.47
2022-12-20T07:05:10.017Z,3.78
2022-12-20T07:10:11.759Z,4.07
2022-12-20T07:15:13.585Z,4.55
2022-12-20T07:20:15.381Z,4.78
2022-12-20T07:25:17.195Z,3.85
2022-12-20T07:30:20.151Z,4.38
2022-12-20T07:35:21.788Z,3.10
2022-12-20T07:40:24.161Z,4.13
2022-12-20T07:45:26.474Z,4.30
2022-12-20T07:50:29.238Z,3.50
2022-12-20T07:55:31.343Z,3.53
2022-12-20T08:00:33.617Z,3.30
2022-12-20T08:05:37.335Z,3.35
2022-12-20T08:10:39.401Z,3.30
2022-12-20T08:15:41.250Z,3.45
2022-12-20T08:20:42.900Z,3.58
2022-12-20T08:25:44.727Z,3.50
2022-12-20T08:30:46.777Z,3.60
2022-12-20T08:35:48.412Z,3.33
2022-12-20T08:40:50.129Z,3.03
2022-12-20T08:45:55.487Z,3.72
2022-12-20T08:50:58.627Z,2.95
2022-12-20T08:56:19.932Z,3.13
2022-12-20T09:01:23.339Z,3.50
2022-12-20T09:06:28.351Z,3.08
2022-12-20T09:11:31.148Z,3.50
2022-12-20T09:16:33.716Z,3.03
2022-12-20T09:21:35.453Z,3.10
2022-12-20T09:26:37.296Z,3.45
2022-12-20T09:31:39.073Z,2.92
2022-12-20T09:36:40.853Z,3.30
2022-12-20T09:41:43.998Z,3.10
2022-12-20T09:46:51.838Z,3.30
2022-12-20T09:52:35.073Z,3.45
2022-12-20T09:58:00.682Z,4.00
2022-12-20T10:03:10.449Z,3.30
2022-12-20T10:08:23.052Z,3.30
2022-12-20T10:13:58.589Z,2.67
2022-12-20T10:19:24.853Z,2.60
2022-12-20T10:24:34.365Z,2.65
2022-12-20T10:29:36.136Z,3.05
2022-12-20T10:34:41.095Z,2.35
2022-12-20T10:39:49.481Z,2.40
2022-12-20T10:50:14.279Z,2.60
2022-12-20T10:55:48.518Z,3.15
2022-12-20T11:00:50.359Z,3.80
2022-12-20T11:05:56.829Z,3.80
2022-12-20T11:11:12.040Z,3.38
2022-12-20T11:16:36.688Z,3.42
2022-12-20T11:21:49.734Z,3.70
2022-12-20T11:27:19.111Z,3.92
2022-12-20T11:32:35.868Z,3.55
2022-12-20T11:38:07.298Z,3.47
2022-12-20T11:44:15.704Z,3.03
2022-12-20T11:49:43.118Z,2.88
2022-12-20T11:55:02.081Z,3.28
2022-12-20T12:00:04.283Z,3.03
2022-12-20T12:05:16.752Z,3.08
2022-12-20T12:10:25.614Z,2.88
2022-12-20T12:15:48.103Z,2.30
2022-12-20T12:21:09.321Z,2.15
2022-12-20T12:26:24.167Z,2.30
2022-12-20T12:36:55.714Z,2.40
2022-12-20T12:42:25.064Z,2.80
2022-12-20T12:47:54.435Z,3.22
2022-12-20T12:53:04.474Z,3.10
2022-12-20T12:58:24.640Z,2.17
2022-12-20T13:03:46.103Z,2.20
2022-12-20T13:09:09.594Z,2.75
2022-12-20T13:14:27.241Z,2.60
2022-12-20T13:19:28.967Z,2.92
2022-12-20T13:24:50.391Z,3.05
2022-12-20T13:30:12.458Z,3.35
2022-12-20T13:35:47.763Z,3.30
2022-12-20T13:40:56.852Z,3.60
2022-12-20T13:46:11.110Z,3.65
2022-12-20T13:51:20.180Z,3.55
2022-12-20T13:56:27.923Z,2.90
2022-12-20T14:01:31.379Z,3.20
2022-12-20T14:06:34.093Z,2.80
2022-12-20T14:11:47.346Z,3.00
2022-12-20T14:16:49.063Z,3.00
2022-12-20T14:21:52.046Z,2.70
2022-12-20T14:26:56.532Z,2.95
2022-12-20T14:31:58.568Z,3.25
2022-12-20T14:37:29.677Z,3.33
2022-12-20T14:42:37.210Z,2.45
2022-12-20T14:47:48.163Z,2.78
2022-12-20T14:52:50.009Z,2.55
2022-12-20T14:57:54.638Z,2.47
2022-12-20T15:02:56.728Z,2.53
2022-12-20T15:08:22.181Z,3.08
2022-12-20T15:13:35.290Z,2.80
2022-12-20T15:18:36.956Z,3.15
2022-12-20T15:23:45.938Z,3.17
2022-12-20T15:28:47.745Z,3.47
2022-12-20T15:33:50.516Z,3.45
2022-12-20T15:39:12.162Z,2.80
2022-12-20T15:44:17.723Z,3.05
2022-12-20T15:49:24.905Z,3.08
2022-12-20T15:54:33.393Z,3.28
2022-12-20T16:04:58.647Z,2.75
2022-12-20T16:10:00.925Z,3.25
2022-12-20T16:15:03.284Z,3.45
2022-12-20T16:20:05.859Z,3.40
2022-12-20T16:25:25.105Z,3.72
2022-12-20T16:30:27.890Z,3.35
2022-12-20T16:35:39.699Z,3.30
2022-12-20T16:40:41.447Z,3.42
2022-12-20T16:45:43.246Z,3.05
2022-12-20T16:50:45.583Z,3.40
2022-12-20T16:55:47.469Z,3.67
2022-12-20T17:00:49.290Z,3.67
2022-12-20T17:05:51.677Z,3.40
2022-12-20T17:10:53.420Z,3.47
2022-12-20T17:15:55.161Z,3.15
2022-12-20T17:20:56.918Z,3.72
2022-12-20T17:25:58.671Z,3.38
2022-12-20T17:31:07.562Z,3.45
2022-12-20T17:36:09.934Z,3.63
2022-12-20T17:41:22.753Z,3.40
2022-12-20T17:46:25.388Z,3.50
2022-12-20T17:51:29.759Z,3.30
2022-12-20T17:56:33.794Z,3.53
2022-12-20T18:01:36.276Z,3.45
2022-12-20T18:06:40.205Z,3.75
2022-12-20T18:11:42.318Z,4.15
2022-12-20T18:16:44.359Z,3.72
2022-12-20T18:21:46.236Z,3.95
2022-12-20T18:26:47.948Z,3.90
2022-12-20T18:31:49.775Z,3.70
2022-12-20T18:36:51.447Z,3.33
2022-12-20T18:41:53.171Z,3.75
2022-12-20T18:46:55.954Z,4.07
2022-12-20T18:51:59.795Z,3.53
2022-12-20T18:57:01.697Z,3.38
2022-12-20T19:02:04.254Z,3.67
2022-12-20T19:07:06.592Z,3.58
2022-12-20T19:12:08.453Z,3.60
2022-12-20T19:17:10.394Z,3.72
2022-12-20T19:22:12.162Z,3.75
2022-12-20T19:27:13.855Z,3.17
2022-12-20T19:32:15.558Z,3.80
2022-12-20T19:37:18.202Z,3.40
2022-12-20T19:42:24.335Z,3.85
2022-12-20T19:47:27.364Z,3.50
2022-12-20T19:52:29.557Z,3.42
2022-12-20T19:57:31.246Z,3.83
2022-12-20T20:02:32.996Z,3.80
2022-12-20T20:07:34.768Z,3.63
2022-12-20T20:12:38.220Z,3.70
2022-12-20T20:17:40.022Z,4.43
2022-12-20T20:22:41.726Z,3.33
2022-12-20T20:27:43.398Z,3.70
2022-12-20T20:32:45.104Z,4.05
2022-12-20T20:37:46.888Z,3.25
2022-12-20T20:42:48.637Z,3.70
2022-12-20T20:47:51.564Z,3.33
2022-12-20T20:52:53.306Z,3.15
2022-12-20T20:57:54.972Z,3.10
2022-12-20T21:02:56.839Z,3.78
2022-12-20T21:07:59.169Z,3.38
2022-12-20T21:13:00.793Z,3.03
2022-12-20T21:18:02.505Z,3.05
2022-12-20T21:23:04.661Z,2.70
2022-12-20T21:28:06.378Z,2.10
2022-12-20T21:33:09.040Z,2.20
2022-12-20T21:38:10.656Z,1.50
2022-12-20T21:43:12.401Z,1.85
2022-12-20T21:48:14.035Z,1.60
2022-12-20T21:53:19.410Z,1.40
2022-12-20T21:58:24.170Z,1.20
2022-12-20T22:08:29.301Z,1.50
2022-12-20T22:13:37.238Z,1.20
2022-12-20T22:18:43.576Z,1.20
2022-12-20T22:23:45.529Z,1.35
2022-12-20T22:28:59.099Z,1.08
2022-12-20T22:34:01.968Z,1.25
2022-12-20T22:39:03.906Z,1.10
2022-12-20T22:44:05.652Z,1.45
2022-12-20T22:49:07.370Z,1.33
2022-12-20T22:54:09.315Z,1.17
2022-12-20T22:59:11.085Z,3.25
2022-12-20T23:04:12.768Z,3.58
2022-12-20T23:09:14.474Z,3.75
2022-12-20T23:14:40.391Z,3.70
2022-12-20T23:20:00.912Z,4.10
2022-12-20T23:25:03.598Z,4.03
2022-12-20T23:30:08.675Z,3.85
2022-12-20T23:35:12.753Z,3.83
2022-12-20T23:45:17.731Z,3.80
2022-12-20T23:50:19.453Z,3.75
2022-12-20T23:55:21.117Z,4.22
